sensor_id;sensor_type;location;lat;lon;timestamp;pressure;altitude;pressure_sealevel;temperature;humidity
60371;BME280;48550;40.588;49.684;2024-03-29T00:00:39;102058.81;;;7.34;100.00
60371;BME280;48550;40.588;49.684;2024-03-29T00:03:05;102053.41;;;7.16;100.00
60371;BME280;48550;40.588;49.684;2024-03-29T00:05:32;102050.19;;;7.10;100.00
60371;BME280;48550;40.588;49.684;2024-03-29T00:07:57;102049.44;;;7.06;100.00
60371;BME280;48550;40.588;49.684;2024-03-29T00:10:23;102045.66;;;7.13;100.00
60371;BME280;48550;40.588;49.684;2024-03-29T00:12:49;102045.16;;;7.25;100.00
60371;BME280;48550;40.588;49.684;2024-03-29T00:15:15;102042.84;;;7.18;100.00
60371;BME280;48550;40.588;49.684;2024-03-29T00:17:40;102036.13;;;7.31;100.00
60371;BME280;48550;40.588;49.684;2024-03-29T00:20:06;102035.53;;;7.45;100.00
60371;BME280;48550;40.588;49.684;2024-03-29T00:22:32;102036.72;;;7.38;100.00
60371;BME280;48550;40.588;49.684;2024-03-29T00:24:58;102029.72;;;7.38;100.00
60371;BME280;48550;40.588;49.684;2024-03-29T00:27:23;102032.06;;;7.44;100.00
60371;BME280;48550;40.588;49.684;2024-03-29T00:29:52;102033.50;;;7.52;100.00
60371;BME280;48550;40.588;49.684;2024-03-29T00:32:19;102026.31;;;7.55;100.00
60371;BME280;48550;40.588;49.684;2024-03-29T00:34:45;102031.63;;;7.74;100.00
60371;BME280;48550;40.588;49.684;2024-03-29T00:37:11;102011.88;;;7.66;100.00
60371;BME280;48550;40.588;49.684;2024-03-29T00:39:37;102019.34;;;7.75;100.00
60371;BME280;48550;40.588;49.684;2024-03-29T00:42:03;102011.25;;;7.79;100.00
60371;BME280;48550;40.588;49.684;2024-03-29T00:44:34;102020.81;;;7.80;100.00
60371;BME280;48550;40.588;49.684;2024-03-29T00:47:01;102003.44;;;7.78;100.00
60371;BME280;48550;40.588;49.684;2024-03-29T00:49:27;102009.53;;;7.78;100.00
60371;BME280;48550;40.588;49.684;2024-03-29T00:51:52;101998.31;;;7.75;100.00
60371;BME280;48550;40.588;49.684;2024-03-29T00:54:18;102007.75;;;7.79;100.00
60371;BME280;48550;40.588;49.684;2024-03-29T00:56:45;102004.91;;;7.84;100.00
60371;BME280;48550;40.588;49.684;2024-03-29T00:59:10;102005.63;;;7.87;100.00
60371;BME280;48550;40.588;49.684;2024-03-29T01:01:36;102002.34;;;7.82;100.00
60371;BME280;48550;40.588;49.684;2024-03-29T01:04:02;102005.31;;;7.74;100.00
60371;BME280;48550;40.588;49.684;2024-03-29T01:06:28;102003.19;;;7.82;100.00
60371;BME280;48550;40.588;49.684;2024-03-29T01:08:53;102005.91;;;7.81;100.00
60371;BME280;48550;40.588;49.684;2024-03-29T01:11:19;102009.19;;;7.86;100.00
60371;BME280;48550;40.588;49.684;2024-03-29T01:13:45;102008.09;;;7.90;100.00
60371;BME280;48550;40.588;49.684;2024-03-29T01:16:10;102008.91;;;7.92;99.89
60371;BME280;48550;40.588;49.684;2024-03-29T01:18:36;102012.66;;;8.06;99.32
60371;BME280;48550;40.588;49.684;2024-03-29T01:21:02;102016.66;;;8.14;96.83
60371;BME280;48550;40.588;49.684;2024-03-29T01:23:28;101995.16;;;8.05;97.22
60371;BME280;48550;40.588;49.684;2024-03-29T01:25:53;102008.84;;;8.13;97.07
60371;BME280;48550;40.588;49.684;2024-03-29T01:28:19;102013.22;;;8.12;98.91
60371;BME280;48550;40.588;49.684;2024-03-29T01:30:54;102023.03;;;8.09;100.00
60371;BME280;48550;40.588;49.684;2024-03-29T01:33:20;102026.09;;;7.99;100.00
60371;BME280;48550;40.588;49.684;2024-03-29T01:35:47;102034.81;;;8.00;100.00
60371;BME280;48550;40.588;49.684;2024-03-29T01:38:14;102033.63;;;7.88;100.00
60371;BME280;48550;40.588;49.684;2024-03-29T01:40:40;102031.69;;;7.73;100.00
60371;BME280;48550;40.588;49.684;2024-03-29T01:43:07;102035.31;;;7.70;100.00
60371;BME280;48550;40.588;49.684;2024-03-29T01:45:39;102037.78;;;7.54;100.00
60371;BME280;48550;40.588;49.684;2024-03-29T01:48:11;102047.41;;;7.54;100.00
60371;BME280;48550;40.588;49.684;2024-03-29T01:50:37;102056.16;;;7.54;100.00
60371;BME280;48550;40.588;49.684;2024-03-29T01:53:05;102058.00;;;7.52;100.00
60371;BME280;48550;40.588;49.684;2024-03-29T01:55:33;102072.28;;;7.47;100.00
60371;BME280;48550;40.588;49.684;2024-03-29T01:57:59;102073.44;;;7.39;100.00
60371;BME280;48550;40.588;49.684;2024-03-29T02:00:26;102079.44;;;7.22;100.00
60371;BME280;48550;40.588;49.684;2024-03-29T02:02:52;102076.88;;;7.21;100.00
60371;BME280;48550;40.588;49.684;2024-03-29T02:05:18;102095.72;;;7.31;100.00
60371;BME280;48550;40.588;49.684;2024-03-29T02:07:45;102088.81;;;7.49;100.00
60371;BME280;48550;40.588;49.684;2024-03-29T02:10:15;102096.97;;;7.63;100.00
60371;BME280;48550;40.588;49.684;2024-03-29T02:12:41;102112.59;;;7.66;100.00
60371;BME280;48550;40.588;49.684;2024-03-29T02:15:07;102105.03;;;7.58;100.00
60371;BME280;48550;40.588;49.684;2024-03-29T02:17:33;102113.72;;;7.60;100.00
60371;BME280;48550;40.588;49.684;2024-03-29T02:19:59;102106.09;;;7.75;100.00
60371;BME280;48550;40.588;49.684;2024-03-29T02:22:25;102109.78;;;7.50;100.00
60371;BME280;48550;40.588;49.684;2024-03-29T02:24:53;102114.50;;;7.42;100.00
60371;BME280;48550;40.588;49.684;2024-03-29T02:27:21;102117.41;;;7.56;100.00
60371;BME280;48550;40.588;49.684;2024-03-29T02:29:47;102119.19;;;7.56;100.00
60371;BME280;48550;40.588;49.684;2024-03-29T02:32:12;102115.56;;;7.58;100.00
60371;BME280;48550;40.588;49.684;2024-03-29T02:34:38;102124.63;;;7.51;100.00
60371;BME280;48550;40.588;49.684;2024-03-29T02:37:04;102125.81;;;7.44;100.00
60371;BME280;48550;40.588;49.684;2024-03-29T02:39:31;102136.78;;;7.54;100.00
60371;BME280;48550;40.588;49.684;2024-03-29T02:41:57;102136.97;;;7.49;100.00
60371;BME280;48550;40.588;49.684;2024-03-29T02:44:23;102130.81;;;7.71;100.00
60371;BME280;48550;40.588;49.684;2024-03-29T02:46:48;102142.22;;;7.90;100.00
60371;BME280;48550;40.588;49.684;2024-03-29T02:49:14;102142.09;;;7.93;100.00
60371;BME280;48550;40.588;49.684;2024-03-29T02:51:40;102137.44;;;8.19;100.00
60371;BME280;48550;40.588;49.684;2024-03-29T02:54:05;102146.22;;;8.39;100.00
60371;BME280;48550;40.588;49.684;2024-03-29T02:56:31;102146.69;;;8.48;100.00
60371;BME280;48550;40.588;49.684;2024-03-29T02:58:57;102138.72;;;8.50;100.00
60371;BME280;48550;40.588;49.684;2024-03-29T03:01:22;102153.81;;;8.65;100.00
60371;BME280;48550;40.588;49.684;2024-03-29T03:03:48;102149.88;;;8.74;100.00
60371;BME280;48550;40.588;49.684;2024-03-29T03:06:14;102157.81;;;8.92;100.00
60371;BME280;48550;40.588;49.684;2024-03-29T03:08:39;102155.53;;;9.03;100.00
60371;BME280;48550;40.588;49.684;2024-03-29T03:11:24;102156.53;;;9.18;100.00
60371;BME280;48550;40.588;49.684;2024-03-29T03:13:49;102146.34;;;9.29;100.00
60371;BME280;48550;40.588;49.684;2024-03-29T03:16:15;102136.81;;;9.26;100.00
60371;BME280;48550;40.588;49.684;2024-03-29T03:18:41;102141.09;;;9.47;100.00
60371;BME280;48550;40.588;49.684;2024-03-29T03:21:06;102137.03;;;9.39;100.00
60371;BME280;48550;40.588;49.684;2024-03-29T03:23:32;102147.81;;;9.52;100.00
60371;BME280;48550;40.588;49.684;2024-03-29T03:26:00;102149.84;;;9.47;100.00
60371;BME280;48550;40.588;49.684;2024-03-29T03:28:26;102148.41;;;9.22;100.00
60371;BME280;48550;40.588;49.684;2024-03-29T03:30:53;102143.56;;;9.32;100.00
60371;BME280;48550;40.588;49.684;2024-03-29T03:33:20;102156.75;;;9.32;100.00
60371;BME280;48550;40.588;49.684;2024-03-29T03:35:46;102140.00;;;9.33;100.00
60371;BME280;48550;40.588;49.684;2024-03-29T03:38:12;102147.22;;;9.47;100.00
60371;BME280;48550;40.588;49.684;2024-03-29T03:40:38;102157.53;;;9.52;100.00
60371;BME280;48550;40.588;49.684;2024-03-29T03:43:04;102160.16;;;9.52;100.00
60371;BME280;48550;40.588;49.684;2024-03-29T03:45:37;102157.31;;;9.56;100.00
60371;BME280;48550;40.588;49.684;2024-03-29T03:48:04;102158.84;;;9.60;100.00
60371;BME280;48550;40.588;49.684;2024-03-29T03:50:30;102166.13;;;9.73;100.00
60371;BME280;48550;40.588;49.684;2024-03-29T03:52:56;102164.66;;;9.85;100.00
60371;BME280;48550;40.588;49.684;2024-03-29T03:55:23;102180.00;;;9.94;100.00
60371;BME280;48550;40.588;49.684;2024-03-29T03:57:48;102171.16;;;9.95;100.00
60371;BME280;48550;40.588;49.684;2024-03-29T04:00:14;102184.72;;;10.05;100.00
60371;BME280;48550;40.588;49.684;2024-03-29T04:02:40;102182.28;;;10.17;100.00
60371;BME280;48550;40.588;49.684;2024-03-29T04:05:07;102181.00;;;10.09;100.00
60371;BME280;48550;40.588;49.684;2024-03-29T04:07:33;102189.44;;;10.15;100.00
60371;BME280;48550;40.588;49.684;2024-03-29T04:09:58;102200.44;;;10.24;100.00
60371;BME280;48550;40.588;49.684;2024-03-29T04:12:24;102195.75;;;10.29;100.00
60371;BME280;48550;40.588;49.684;2024-03-29T04:14:50;102184.06;;;10.34;100.00
60371;BME280;48550;40.588;49.684;2024-03-29T04:17:15;102184.78;;;10.54;100.00
60371;BME280;48550;40.588;49.684;2024-03-29T04:19:41;102195.84;;;10.61;100.00
60371;BME280;48550;40.588;49.684;2024-03-29T04:22:07;102205.91;;;10.70;100.00
60371;BME280;48550;40.588;49.684;2024-03-29T04:24:32;102206.75;;;10.70;100.00
60371;BME280;48550;40.588;49.684;2024-03-29T04:26:58;102211.78;;;10.75;100.00
60371;BME280;48550;40.588;49.684;2024-03-29T04:29:24;102219.22;;;10.68;100.00
60371;BME280;48550;40.588;49.684;2024-03-29T04:31:50;102222.38;;;10.75;100.00
60371;BME280;48550;40.588;49.684;2024-03-29T04:34:15;102225.25;;;10.70;100.00
60371;BME280;48550;40.588;49.684;2024-03-29T04:36:41;102218.88;;;10.91;100.00
60371;BME280;48550;40.588;49.684;2024-03-29T04:39:07;102236.53;;;11.06;100.00
60371;BME280;48550;40.588;49.684;2024-03-29T04:41:33;102232.16;;;11.37;100.00
60371;BME280;48550;40.588;49.684;2024-03-29T04:44:03;102237.25;;;11.56;100.00
60371;BME280;48550;40.588;49.684;2024-03-29T04:46:30;102250.13;;;11.62;100.00
60371;BME280;48550;40.588;49.684;2024-03-29T04:48:57;102255.69;;;11.57;100.00
60371;BME280;48550;40.588;49.684;2024-03-29T04:51:23;102260.13;;;11.57;100.00
60371;BME280;48550;40.588;49.684;2024-03-29T04:53:49;102260.22;;;11.39;100.00
60371;BME280;48550;40.588;49.684;2024-03-29T04:56:15;102244.47;;;11.68;100.00
60371;BME280;48550;40.588;49.684;2024-03-29T04:58:40;102258.88;;;11.78;100.00
60371;BME280;48550;40.588;49.684;2024-03-29T05:01:07;102251.75;;;11.65;100.00
60371;BME280;48550;40.588;49.684;2024-03-29T05:03:33;102248.31;;;11.62;100.00
60371;BME280;48550;40.588;49.684;2024-03-29T05:05:58;102246.09;;;11.71;100.00
60371;BME280;48550;40.588;49.684;2024-03-29T05:08:24;102244.03;;;11.76;100.00
60371;BME280;48550;40.588;49.684;2024-03-29T05:10:50;102249.84;;;12.70;100.00
60371;BME280;48550;40.588;49.684;2024-03-29T05:13:17;102252.72;;;16.02;83.92
60371;BME280;48550;40.588;49.684;2024-03-29T05:15:47;102250.84;;;19.25;65.22
60371;BME280;48550;40.588;49.684;2024-03-29T05:18:13;102251.50;;;21.35;42.49
60371;BME280;48550;40.588;49.684;2024-03-29T05:20:39;102261.06;;;22.18;40.27
60371;BME280;48550;40.588;49.684;2024-03-29T05:23:07;102248.75;;;23.27;38.81
60371;BME280;48550;40.588;49.684;2024-03-29T05:25:33;102266.94;;;24.16;36.50
60371;BME280;48550;40.588;49.684;2024-03-29T05:27:59;102267.97;;;23.57;37.29
60371;BME280;48550;40.588;49.684;2024-03-29T05:30:24;102257.72;;;23.94;36.72
60371;BME280;48550;40.588;49.684;2024-03-29T05:32:50;102264.41;;;24.22;35.65
60371;BME280;48550;40.588;49.684;2024-03-29T05:35:16;102259.94;;;22.90;37.66
60371;BME280;48550;40.588;49.684;2024-03-29T05:37:41;102271.88;;;23.87;36.99
60371;BME280;48550;40.588;49.684;2024-03-29T05:40:08;102270.72;;;24.62;35.29
60371;BME280;48550;40.588;49.684;2024-03-29T05:42:34;102274.00;;;24.81;35.36
60371;BME280;48550;40.588;49.684;2024-03-29T05:45:04;102261.56;;;24.72;35.88
60371;BME280;48550;40.588;49.684;2024-03-29T05:47:30;102280.13;;;23.86;37.66
60371;BME280;48550;40.588;49.684;2024-03-29T05:49:56;102279.47;;;23.67;37.11
60371;BME280;48550;40.588;49.684;2024-03-29T05:52:22;102271.81;;;23.22;37.81
60371;BME280;48550;40.588;49.684;2024-03-29T05:54:48;102284.28;;;23.23;38.21
60371;BME280;48550;40.588;49.684;2024-03-29T05:57:14;102275.44;;;22.96;39.42
60371;BME280;48550;40.588;49.684;2024-03-29T05:59:41;102280.94;;;21.73;41.01
60371;BME280;48550;40.588;49.684;2024-03-29T06:02:07;102274.63;;;21.46;42.74
60371;BME280;48550;40.588;49.684;2024-03-29T06:04:32;102277.03;;;22.38;40.94
60371;BME280;48550;40.588;49.684;2024-03-29T06:06:59;102269.78;;;21.68;40.99
60371;BME280;48550;40.588;49.684;2024-03-29T06:09:24;102277.59;;;21.79;40.76
60371;BME280;48550;40.588;49.684;2024-03-29T06:11:51;102278.56;;;22.40;39.95
60371;BME280;48550;40.588;49.684;2024-03-29T06:14:17;102279.47;;;20.59;42.88
60371;BME280;48550;40.588;49.684;2024-03-29T06:17:01;102285.28;;;20.92;42.75
60371;BME280;48550;40.588;49.684;2024-03-29T06:19:45;102294.03;;;19.61;44.98
60371;BME280;48550;40.588;49.684;2024-03-29T06:22:10;102288.13;;;19.86;45.06
60371;BME280;48550;40.588;49.684;2024-03-29T06:24:36;102286.41;;;19.36;46.21
60371;BME280;48550;40.588;49.684;2024-03-29T06:27:04;102286.47;;;18.65;46.34
60371;BME280;48550;40.588;49.684;2024-03-29T06:29:30;102278.78;;;18.51;48.93
60371;BME280;48550;40.588;49.684;2024-03-29T06:31:55;102284.88;;;16.79;52.41
60371;BME280;48550;40.588;49.684;2024-03-29T06:34:21;102280.78;;;16.75;52.91
60371;BME280;48550;40.588;49.684;2024-03-29T06:36:47;102284.00;;;16.33;54.71
60371;BME280;48550;40.588;49.684;2024-03-29T06:39:12;102281.47;;;16.32;55.18
60371;BME280;48550;40.588;49.684;2024-03-29T06:41:38;102281.88;;;16.39;54.65
60371;BME280;48550;40.588;49.684;2024-03-29T06:44:05;102276.91;;;16.68;53.80
60371;BME280;48550;40.588;49.684;2024-03-29T06:46:32;102284.78;;;16.58;53.66
60371;BME280;48550;40.588;49.684;2024-03-29T06:49:00;102283.41;;;16.30;54.21
60371;BME280;48550;40.588;49.684;2024-03-29T06:51:26;102277.84;;;16.44;55.06
60371;BME280;48550;40.588;49.684;2024-03-29T06:53:51;102278.50;;;16.93;53.20
60371;BME280;48550;40.588;49.684;2024-03-29T06:56:17;102269.72;;;17.90;51.35
60371;BME280;48550;40.588;49.684;2024-03-29T06:58:43;102266.22;;;17.46;51.03
60371;BME280;48550;40.588;49.684;2024-03-29T07:01:09;102257.19;;;18.73;48.07
60371;BME280;48550;40.588;49.684;2024-03-29T07:03:35;102264.97;;;19.27;45.52
60371;BME280;48550;40.588;49.684;2024-03-29T07:06:00;102257.91;;;19.26;46.35
60371;BME280;48550;40.588;49.684;2024-03-29T07:08:26;102261.34;;;18.25;48.01
60371;BME280;48550;40.588;49.684;2024-03-29T07:11:01;102266.69;;;17.51;49.52
60371;BME280;48550;40.588;49.684;2024-03-29T07:13:29;102257.50;;;16.43;54.02
60371;BME280;48550;40.588;49.684;2024-03-29T07:16:00;102247.56;;;17.67;50.08
60371;BME280;48550;40.588;49.684;2024-03-29T07:18:26;102250.47;;;17.43;49.20
60371;BME280;48550;40.588;49.684;2024-03-29T07:20:52;102252.72;;;17.26;50.74
60371;BME280;48550;40.588;49.684;2024-03-29T07:23:18;102256.91;;;16.62;52.28
60371;BME280;48550;40.588;49.684;2024-03-29T07:26:03;102250.66;;;15.70;54.30
60371;BME280;48550;40.588;49.684;2024-03-29T07:28:30;102247.53;;;14.15;61.02
60371;BME280;48550;40.588;49.684;2024-03-29T07:30:56;102237.34;;;14.60;59.92
60371;BME280;48550;40.588;49.684;2024-03-29T07:33:23;102238.59;;;13.90;61.93
60371;BME280;48550;40.588;49.684;2024-03-29T07:35:55;102239.00;;;14.74;59.60
60371;BME280;48550;40.588;49.684;2024-03-29T07:38:21;102235.63;;;14.33;61.67
60371;BME280;48550;40.588;49.684;2024-03-29T07:40:49;102241.47;;;12.91;70.62
60371;BME280;48550;40.588;49.684;2024-03-29T07:43:15;102235.41;;;13.03;72.86
60371;BME280;48550;40.588;49.684;2024-03-29T07:45:44;102236.78;;;12.24;83.40
60371;BME280;48550;40.588;49.684;2024-03-29T07:48:12;102236.22;;;12.62;76.53
60371;BME280;48550;40.588;49.684;2024-03-29T07:50:39;102232.41;;;12.23;79.90
60371;BME280;48550;40.588;49.684;2024-03-29T07:53:05;102230.28;;;12.44;80.38
60371;BME280;48550;40.588;49.684;2024-03-29T07:55:31;102221.94;;;12.65;77.73
60371;BME280;48550;40.588;49.684;2024-03-29T07:57:56;102208.13;;;12.45;78.02
60371;BME280;48550;40.588;49.684;2024-03-29T08:00:23;102214.81;;;12.80;75.92
60371;BME280;48550;40.588;49.684;2024-03-29T08:02:49;102226.09;;;13.11;76.22
60371;BME280;48550;40.588;49.684;2024-03-29T08:05:15;102217.13;;;13.40;75.21
60371;BME280;48550;40.588;49.684;2024-03-29T08:07:41;102216.84;;;13.03;74.92
60371;BME280;48550;40.588;49.684;2024-03-29T08:10:07;102215.72;;;13.07;74.96
60371;BME280;48550;40.588;49.684;2024-03-29T08:12:33;102207.47;;;12.98;78.55
60371;BME280;48550;40.588;49.684;2024-03-29T08:15:00;102203.00;;;13.13;76.13
60371;BME280;48550;40.588;49.684;2024-03-29T08:17:26;102194.88;;;13.29;74.21
60371;BME280;48550;40.588;49.684;2024-03-29T08:19:51;102194.69;;;13.32;71.51
60371;BME280;48550;40.588;49.684;2024-03-29T08:22:17;102200.16;;;13.43;70.71
60371;BME280;48550;40.588;49.684;2024-03-29T08:24:43;102185.63;;;13.49;69.63
60371;BME280;48550;40.588;49.684;2024-03-29T08:27:09;102182.25;;;13.59;66.01
60371;BME280;48550;40.588;49.684;2024-03-29T08:29:35;102184.09;;;13.72;69.90
60371;BME280;48550;40.588;49.684;2024-03-29T08:32:01;102174.63;;;13.68;67.97
60371;BME280;48550;40.588;49.684;2024-03-29T08:34:27;102160.59;;;13.66;67.38
60371;BME280;48550;40.588;49.684;2024-03-29T08:36:57;102158.38;;;13.59;65.18
60371;BME280;48550;40.588;49.684;2024-03-29T08:39:23;102156.25;;;13.77;66.66
60371;BME280;48550;40.588;49.684;2024-03-29T08:41:49;102154.81;;;13.33;74.06
60371;BME280;48550;40.588;49.684;2024-03-29T08:44:14;102148.06;;;13.15;75.82
60371;BME280;48550;40.588;49.684;2024-03-29T08:46:40;102142.56;;;13.31;69.89
60371;BME280;48550;40.588;49.684;2024-03-29T08:49:06;102138.63;;;12.96;67.22
60371;BME280;48550;40.588;49.684;2024-03-29T08:51:31;102137.53;;;13.13;68.16
60371;BME280;48550;40.588;49.684;2024-03-29T08:53:57;102144.13;;;13.35;69.50
60371;BME280;48550;40.588;49.684;2024-03-29T08:56:23;102134.50;;;12.92;77.26
60371;BME280;48550;40.588;49.684;2024-03-29T08:58:49;102135.78;;;12.16;95.36
60371;BME280;48550;40.588;49.684;2024-03-29T09:01:15;102120.78;;;10.97;100.00
60371;BME280;48550;40.588;49.684;2024-03-29T09:03:41;102120.06;;;11.39;100.00
60371;BME280;48550;40.588;49.684;2024-03-29T09:06:06;102112.94;;;11.25;100.00
60371;BME280;48550;40.588;49.684;2024-03-29T09:08:32;102109.06;;;11.17;100.00
60371;BME280;48550;40.588;49.684;2024-03-29T09:10:58;102107.31;;;11.01;100.00
60371;BME280;48550;40.588;49.684;2024-03-29T09:13:23;102098.75;;;11.12;100.00
60371;BME280;48550;40.588;49.684;2024-03-29T09:15:49;102090.47;;;11.18;100.00
60371;BME280;48550;40.588;49.684;2024-03-29T09:18:15;102083.03;;;11.25;100.00
60371;BME280;48550;40.588;49.684;2024-03-29T09:20:59;102104.00;;;11.28;100.00
60371;BME280;48550;40.588;49.684;2024-03-29T09:23:25;102101.41;;;11.12;100.00
60371;BME280;48550;40.588;49.684;2024-03-29T09:25:51;102100.19;;;10.56;100.00
60371;BME280;48550;40.588;49.684;2024-03-29T09:28:17;102104.31;;;10.12;100.00
60371;BME280;48550;40.588;49.684;2024-03-29T09:30:43;102100.19;;;10.06;100.00
60371;BME280;48550;40.588;49.684;2024-03-29T09:33:08;102099.34;;;10.06;100.00
60371;BME280;48550;40.588;49.684;2024-03-29T09:35:38;102087.69;;;10.10;100.00
60371;BME280;48550;40.588;49.684;2024-03-29T09:38:04;102092.63;;;10.16;100.00
60371;BME280;48550;40.588;49.684;2024-03-29T09:40:30;102079.50;;;10.14;100.00
60371;BME280;48550;40.588;49.684;2024-03-29T09:42:56;102067.97;;;9.84;100.00
60371;BME280;48550;40.588;49.684;2024-03-29T09:45:37;102075.53;;;9.74;100.00
60371;BME280;48550;40.588;49.684;2024-03-29T09:48:04;102079.09;;;9.73;100.00
60371;BME280;48550;40.588;49.684;2024-03-29T09:50:31;102068.38;;;9.76;100.00
60371;BME280;48550;40.588;49.684;2024-03-29T09:52:58;102070.72;;;9.98;100.00
60371;BME280;48550;40.588;49.684;2024-03-29T09:55:24;102066.78;;;9.89;100.00
60371;BME280;48550;40.588;49.684;2024-03-29T09:57:50;102064.75;;;9.78;100.00
60371;BME280;48550;40.588;49.684;2024-03-29T10:00:17;102058.44;;;9.81;100.00
60371;BME280;48550;40.588;49.684;2024-03-29T10:02:43;102060.00;;;10.01;100.00
60371;BME280;48550;40.588;49.684;2024-03-29T10:05:11;102048.00;;;10.11;100.00
60371;BME280;48550;40.588;49.684;2024-03-29T10:07:38;102048.97;;;10.10;100.00
60371;BME280;48550;40.588;49.684;2024-03-29T10:10:05;102042.81;;;10.10;100.00
60371;BME280;48550;40.588;49.684;2024-03-29T10:12:31;102048.19;;;10.24;100.00
60371;BME280;48550;40.588;49.684;2024-03-29T10:14:57;102037.03;;;10.19;100.00
60371;BME280;48550;40.588;49.684;2024-03-29T10:17:34;102034.47;;;10.17;100.00
60371;BME280;48550;40.588;49.684;2024-03-29T10:20:01;102020.69;;;10.12;100.00
60371;BME280;48550;40.588;49.684;2024-03-29T10:22:29;102016.25;;;10.13;100.00
60371;BME280;48550;40.588;49.684;2024-03-29T10:24:57;102009.53;;;10.07;100.00
60371;BME280;48550;40.588;49.684;2024-03-29T10:27:27;102014.03;;;10.05;100.00
60371;BME280;48550;40.588;49.684;2024-03-29T10:29:53;102001.28;;;10.29;100.00
60371;BME280;48550;40.588;49.684;2024-03-29T10:32:19;102002.63;;;10.52;100.00
60371;BME280;48550;40.588;49.684;2024-03-29T10:34:44;102003.00;;;10.77;100.00
60371;BME280;48550;40.588;49.684;2024-03-29T10:37:10;101998.56;;;10.63;100.00
60371;BME280;48550;40.588;49.684;2024-03-29T10:39:36;102001.41;;;10.74;100.00
60371;BME280;48550;40.588;49.684;2024-03-29T10:42:02;101985.22;;;10.80;100.00
60371;BME280;48550;40.588;49.684;2024-03-29T10:44:32;101979.75;;;10.83;100.00
60371;BME280;48550;40.588;49.684;2024-03-29T10:47:01;101972.44;;;11.03;100.00
60371;BME280;48550;40.588;49.684;2024-03-29T10:49:29;101965.81;;;11.24;100.00
60371;BME280;48550;40.588;49.684;2024-03-29T10:51:59;101954.22;;;11.41;100.00
60371;BME280;48550;40.588;49.684;2024-03-29T10:54:25;101954.31;;;11.69;100.00
60371;BME280;48550;40.588;49.684;2024-03-29T10:57:05;101953.88;;;11.89;100.00
60371;BME280;48550;40.588;49.684;2024-03-29T10:59:46;101945.34;;;12.13;100.00
60371;BME280;48550;40.588;49.684;2024-03-29T11:02:30;101933.00;;;12.26;100.00
60371;BME280;48550;40.588;49.684;2024-03-29T11:04:59;101926.19;;;12.49;100.00
60371;BME280;48550;40.588;49.684;2024-03-29T11:07:34;101912.69;;;12.80;100.00
60371;BME280;48550;40.588;49.684;2024-03-29T11:10:01;101913.09;;;12.99;100.00
60371;BME280;48550;40.588;49.684;2024-03-29T11:15:22;101908.66;;;13.38;100.00
60371;BME280;48550;40.588;49.684;2024-03-29T11:17:54;101907.56;;;13.54;100.00
60371;BME280;48550;40.588;49.684;2024-03-29T11:20:24;101894.84;;;13.83;100.00
60371;BME280;48550;40.588;49.684;2024-03-29T11:23:01;101879.00;;;14.30;100.00
60371;BME280;48550;40.588;49.684;2024-03-29T11:25:48;101885.97;;;15.02;80.12
60371;BME280;48550;40.588;49.684;2024-03-29T11:28:15;101894.13;;;15.55;77.54
60371;BME280;48550;40.588;49.684;2024-03-29T11:30:48;101875.97;;;16.16;73.25
60371;BME280;48550;40.588;49.684;2024-03-29T11:33:34;101880.03;;;16.52;70.34
60371;BME280;48550;40.588;49.684;2024-03-29T11:36:06;101884.75;;;16.69;70.08
60371;BME280;48550;40.588;49.684;2024-03-29T11:38:35;101892.81;;;16.79;65.86
60371;BME280;48550;40.588;49.684;2024-03-29T11:41:45;101889.00;;;16.93;60.82
60371;BME280;48550;40.588;49.684;2024-03-29T11:43:50;101881.97;;;16.92;57.87
60371;BME280;48550;40.588;49.684;2024-03-29T11:46:17;101881.16;;;17.01;54.72
60371;BME280;48550;40.588;49.684;2024-03-29T11:48:44;101880.03;;;16.94;52.32
60371;BME280;48550;40.588;49.684;2024-03-29T11:51:14;101875.13;;;16.99;51.34
60371;BME280;48550;40.588;49.684;2024-03-29T11:53:41;101886.06;;;16.96;50.25
60371;BME280;48550;40.588;49.684;2024-03-29T11:56:07;101884.38;;;16.95;49.16
60371;BME280;48550;40.588;49.684;2024-03-29T11:58:34;101889.69;;;16.95;48.02
60371;BME280;48550;40.588;49.684;2024-03-29T12:01:00;101900.56;;;17.03;47.61
60371;BME280;48550;40.588;49.684;2024-03-29T12:03:30;101896.34;;;17.01;47.39
60371;BME280;48550;40.588;49.684;2024-03-29T12:05:57;101894.91;;;16.97;47.60
60371;BME280;48550;40.588;49.684;2024-03-29T12:08:25;101894.59;;;16.90;47.67
60371;BME280;48550;40.588;49.684;2024-03-29T12:10:53;101887.47;;;16.79;47.24
60371;BME280;48550;40.588;49.684;2024-03-29T12:13:19;101892.31;;;16.85;47.48
60371;BME280;48550;40.588;49.684;2024-03-29T12:15:45;101883.00;;;16.80;47.09
60371;BME280;48550;40.588;49.684;2024-03-29T12:18:11;101891.84;;;16.80;47.28
60371;BME280;48550;40.588;49.684;2024-03-29T12:20:38;101883.72;;;16.82;46.46
60371;BME280;48550;40.588;49.684;2024-03-29T12:23:09;101877.56;;;16.81;46.12
60371;BME280;48550;40.588;49.684;2024-03-29T12:25:37;101881.56;;;16.76;45.74
60371;BME280;48550;40.588;49.684;2024-03-29T12:28:03;101880.91;;;16.83;46.88
60371;BME280;48550;40.588;49.684;2024-03-29T12:30:30;101888.69;;;16.86;45.24
60371;BME280;48550;40.588;49.684;2024-03-29T12:33:11;101884.56;;;16.82;45.15
60371;BME280;48550;40.588;49.684;2024-03-29T12:35:41;101878.22;;;16.74;44.99
60371;BME280;48550;40.588;49.684;2024-03-29T12:38:08;101885.06;;;16.76;45.22
60371;BME280;48550;40.588;49.684;2024-03-29T12:40:34;101882.41;;;16.76;44.54